createdAt,value
2018-02-19T00:02:36.277Z,93.10
2018-02-19T00:05:16.038Z,93.10
2018-02-19T00:07:56.667Z,93.00
2018-02-19T00:10:35.595Z,93.00
2018-02-19T00:13:14.814Z,92.90
2018-02-19T00:15:56.031Z,92.90
2018-02-19T00:18:34.321Z,92.80
2018-02-19T00:21:07.744Z,92.90
2018-02-19T00:23:42.525Z,92.80
2018-02-19T00:26:21.256Z,92.80
2018-02-19T00:28:59.184Z,92.80
2018-02-19T00:31:36.835Z,92.80
2018-02-19T00:34:18.692Z,92.80
2018-02-19T00:36:58.067Z,93.10
2018-02-19T00:39:37.146Z,93.10
2018-02-19T00:42:17.329Z,93.20
2018-02-19T00:44:56.176Z,93.20
2018-02-19T00:47:35.295Z,93.30
2018-02-19T00:50:14.466Z,93.40
2018-02-19T00:52:55.106Z,93.30
2018-02-19T00:55:28.509Z,93.30
2018-02-19T00:58:05.152Z,93.40
2018-02-19T01:00:50.102Z,93.50
2018-02-19T01:03:30.943Z,93.60
2018-02-19T01:06:12.645Z,93.60
2018-02-19T01:08:51.175Z,93.70
2018-02-19T01:11:31.388Z,93.80
2018-02-19T01:14:05.304Z,93.70
2018-02-19T01:16:44.560Z,93.80
2018-02-19T01:19:26.557Z,93.90
2018-02-19T01:22:07.554Z,93.90
2018-02-19T01:24:45.323Z,93.90
2018-02-19T01:27:24.601Z,93.90
2018-02-19T01:30:03.866Z,94.10
2018-02-19T01:32:43.206Z,94.10
2018-02-19T01:35:19.868Z,94.10
2018-02-19T01:38:00.708Z,94.00
2018-02-19T01:40:40.116Z,94.10
2018-02-19T01:43:18.713Z,94.10
2018-02-19T01:45:57.967Z,94.30
2018-02-19T01:48:39.395Z,94.50
2018-02-19T01:51:18.594Z,94.50
2018-02-19T01:53:57.763Z,94.80
2018-02-19T01:56:36.769Z,94.80
2018-02-19T01:59:15.903Z,94.90
2018-02-19T02:01:55.337Z,94.90
2018-02-19T02:04:37.709Z,94.90
2018-02-19T02:07:17.447Z,95.10
2018-02-19T02:10:02.670Z,95.20
2018-02-19T02:12:43.556Z,95.20
2018-02-19T02:15:23.861Z,95.30
2018-02-19T02:18:06.217Z,95.60
2018-02-19T02:20:47.969Z,95.80
2018-02-19T02:23:32.517Z,95.80
2018-02-19T02:26:15.159Z,95.80
2018-02-19T02:28:57.039Z,95.90
2018-02-19T02:31:38.281Z,96.10
2018-02-19T02:34:15.972Z,96.00
2018-02-19T02:36:59.178Z,96.10
2018-02-19T02:39:39.532Z,96.20
2018-02-19T02:42:21.248Z,96.20
2018-02-19T02:45:01.514Z,96.30
2018-02-19T02:47:40.938Z,96.00
2018-02-19T02:50:21.451Z,95.90
2018-02-19T02:53:01.104Z,95.70
2018-02-19T02:55:41.260Z,95.80
2018-02-19T02:58:20.256Z,95.80
2018-02-19T03:01:01.006Z,96.10
2018-02-19T03:03:40.737Z,96.20
2018-02-19T03:06:19.527Z,96.10
2018-02-19T03:08:58.205Z,96.30
2018-02-19T03:11:38.521Z,96.30
2018-02-19T03:14:19.147Z,96.60
2018-02-19T03:16:58.881Z,96.40
2018-02-19T03:19:38.676Z,96.40
2018-02-19T03:22:19.820Z,96.40
2018-02-19T03:25:01.551Z,96.40
2018-02-19T03:27:43.407Z,96.40
2018-02-19T03:30:25.601Z,96.40
2018-02-19T03:33:07.775Z,96.80
2018-02-19T03:35:52.029Z,96.50
2018-02-19T03:38:32.556Z,96.30
2018-02-19T03:41:13.384Z,96.50
2018-02-19T03:43:56.960Z,96.80
2018-02-19T03:46:39.276Z,96.40
2018-02-19T03:49:22.819Z,96.40
2018-02-19T03:52:02.753Z,96.30
2018-02-19T03:54:44.152Z,96.00
2018-02-19T03:57:25.697Z,95.90
2018-02-19T04:00:07.406Z,95.80
2018-02-19T04:02:47.090Z,95.80
2018-02-19T04:05:26.436Z,96.00
2018-02-19T04:08:06.906Z,96.10
2018-02-19T04:10:46.262Z,96.10
2018-02-19T04:13:25.533Z,96.10
2018-02-19T04:16:04.943Z,96.10
2018-02-19T04:18:45.573Z,96.00
2018-02-19T04:21:27.958Z,95.80
2018-02-19T04:24:03.914Z,95.80
2018-02-19T04:26:45.711Z,95.80
2018-02-19T04:29:26.823Z,95.80
2018-02-19T04:32:11.246Z,95.50
2018-02-19T04:34:53.582Z,95.50
2018-02-19T04:37:35.060Z,95.40
2018-02-19T04:40:20.082Z,95.60
2018-02-19T04:42:55.062Z,95.20
2018-02-19T04:45:39.859Z,95.30
2018-02-19T04:48:18.722Z,95.30
2018-02-19T04:51:01.712Z,95.20
2018-02-19T04:53:40.150Z,95.20
2018-02-19T04:56:19.798Z,95.30
2018-02-19T04:59:02.566Z,95.40
2018-02-19T05:01:43.526Z,95.40
2018-02-19T05:04:24.143Z,95.50
2018-02-19T05:06:57.843Z,95.40
2018-02-19T05:09:33.616Z,95.70
2018-02-19T05:12:15.487Z,95.50
2018-02-19T05:14:57.761Z,95.50
2018-02-19T05:17:37.406Z,95.80
2018-02-19T05:20:17.093Z,95.70
2018-02-19T05:22:56.131Z,95.60
2018-02-19T05:25:34.963Z,95.70
2018-02-19T05:28:17.487Z,95.70
2018-02-19T05:30:58.932Z,95.50
2018-02-19T05:33:39.626Z,95.50
2018-02-19T05:36:14.065Z,95.20
2018-02-19T05:38:54.620Z,95.20
2018-02-19T05:41:35.782Z,95.50
2018-02-19T05:44:20.839Z,95.60
2018-02-19T05:47:02.185Z,95.60
2018-02-19T05:49:41.495Z,95.80
2018-02-19T05:52:25.743Z,96.10
2018-02-19T05:55:08.607Z,96.00
2018-02-19T05:57:45.190Z,96.10
2018-02-19T06:00:24.859Z,96.10
2018-02-19T06:03:07.575Z,96.20
2018-02-19T06:05:54.251Z,96.00
2018-02-19T06:08:27.926Z,96.00
2018-02-19T06:11:07.022Z,96.00
2018-02-19T06:13:46.913Z,96.00
2018-02-19T06:16:28.996Z,95.80
2018-02-19T06:19:05.008Z,95.60
2018-02-19T06:21:50.489Z,95.50
2018-02-19T06:24:25.536Z,95.50
2018-02-19T06:27:03.428Z,95.50
2018-02-19T06:29:44.653Z,95.60
2018-02-19T06:32:23.937Z,95.60
2018-02-19T06:35:04.349Z,95.60
2018-02-19T06:37:44.749Z,95.60
2018-02-19T06:40:23.553Z,95.80
2018-02-19T06:43:02.137Z,96.00
2018-02-19T06:45:42.821Z,96.00
2018-02-19T06:48:20.156Z,96.10
2018-02-19T06:51:01.976Z,95.90
2018-02-19T06:53:38.379Z,95.90
2018-02-19T06:56:18.118Z,95.80
2018-02-19T06:58:57.739Z,96.00
2018-02-19T07:01:39.754Z,95.70
2018-02-19T07:04:20.729Z,95.80
2018-02-19T07:07:02.602Z,96.10
2018-02-19T07:09:42.453Z,95.60
2018-02-19T07:12:22.807Z,95.60
2018-02-19T07:15:04.440Z,95.70
2018-02-19T07:17:44.518Z,95.50
2018-02-19T07:20:27.773Z,95.50
2018-02-19T07:23:07.080Z,95.20
2018-02-19T07:25:49.088Z,95.20
2018-02-19T07:28:24.600Z,95.10
2018-02-19T07:31:05.712Z,95.10
2018-02-19T07:33:45.772Z,95.30
2018-02-19T07:36:25.602Z,95.20
2018-02-19T07:39:08.548Z,95.30
2018-02-19T07:41:48.113Z,95.30
2018-02-19T07:44:22.839Z,95.30
2018-02-19T07:46:57.704Z,95.50
2018-02-19T07:49:37.872Z,95.20
2018-02-19T07:52:17.720Z,95.20
2018-02-19T07:54:52.514Z,95.30
2018-02-19T07:57:33.585Z,95.30
2018-02-19T08:00:15.408Z,94.90
2018-02-19T08:02:55.029Z,94.20
2018-02-19T08:05:33.767Z,94.10
2018-02-19T08:08:12.099Z,94.30
2018-02-19T08:10:52.708Z,94.40
2018-02-19T08:13:26.514Z,94.10
2018-02-19T08:16:00.199Z,93.90
2018-02-19T08:18:39.889Z,93.90
2018-02-19T08:21:18.808Z,94.00
2018-02-19T08:23:58.635Z,94.20
2018-02-19T08:26:39.356Z,93.90
2018-02-19T08:29:18.515Z,93.50
2018-02-19T08:31:54.900Z,93.50
2018-02-19T08:34:35.211Z,93.60
2018-02-19T08:37:15.534Z,93.30
2018-02-19T08:39:55.811Z,93.30
2018-02-19T08:42:29.477Z,93.20
2018-02-19T08:45:04.700Z,93.50
2018-02-19T08:47:38.873Z,93.20
2018-02-19T08:50:20.340Z,93.20
2018-02-19T08:52:56.015Z,93.10
2018-02-19T08:55:37.206Z,93.40
2018-02-19T08:58:17.447Z,93.30
2018-02-19T09:00:57.649Z,93.40
2018-02-19T09:03:31.886Z,93.40
2018-02-19T09:06:10.850Z,93.30
2018-02-19T09:08:48.377Z,92.30
2018-02-19T09:11:28.144Z,92.30
2018-02-19T09:14:08.484Z,91.70
2018-02-19T09:16:49.253Z,90.90
2018-02-19T09:19:29.431Z,90.30
2018-02-19T09:22:10.124Z,89.90
2018-02-19T09:24:50.393Z,89.30
2018-02-19T09:27:31.982Z,89.30
2018-02-19T09:30:07.954Z,89.10
2018-02-19T09:32:47.882Z,89.10
2018-02-19T09:35:29.674Z,89.00
2018-02-19T09:38:09.825Z,88.20
2018-02-19T09:40:48.980Z,88.10
2018-02-19T09:43:26.523Z,88.10
2018-02-19T09:46:06.571Z,88.40
2018-02-19T09:48:46.047Z,89.60
2018-02-19T09:51:25.701Z,89.00
2018-02-19T09:54:01.361Z,89.00
2018-02-19T09:56:41.855Z,87.70
2018-02-19T09:59:22.554Z,86.60
2018-02-19T10:02:01.827Z,87.10
2018-02-19T10:04:36.459Z,89.20
2018-02-19T10:07:12.195Z,88.70
2018-02-19T10:09:48.639Z,87.80
2018-02-19T10:12:23.174Z,89.20
2018-02-19T10:14:58.559Z,89.10
2018-02-19T10:17:42.327Z,88.40
2018-02-19T10:20:20.469Z,88.50
2018-02-19T10:23:00.149Z,88.50
2018-02-19T10:25:39.245Z,87.70
2018-02-19T10:28:17.773Z,88.20
2018-02-19T10:30:56.926Z,88.30
2018-02-19T10:33:36.437Z,87.50
2018-02-19T10:36:14.284Z,86.50
2018-02-19T10:38:49.830Z,86.20
2018-02-19T10:41:23.810Z,86.70
2018-02-19T10:44:02.983Z,87.50
2018-02-19T10:46:42.165Z,85.80
2018-02-19T10:49:16.819Z,85.40
2018-02-19T10:51:53.512Z,86.20
2018-02-19T10:54:34.218Z,88.10
2018-02-19T10:57:15.614Z,88.00
2018-02-19T10:59:57.861Z,86.70
2018-02-19T11:02:39.311Z,86.90
2018-02-19T11:05:17.060Z,87.60
2018-02-19T11:07:58.850Z,86.40
2018-02-19T11:10:40.058Z,85.70
2018-02-19T11:13:18.613Z,86.00
2018-02-19T11:15:59.048Z,86.30
2018-02-19T11:18:34.122Z,86.50
2018-02-19T11:21:12.490Z,86.00
2018-02-19T11:23:53.900Z,86.60
2018-02-19T11:26:34.166Z,86.80
2018-02-19T11:29:07.386Z,86.50
2018-02-19T11:31:47.251Z,86.10
2018-02-19T11:34:28.945Z,85.60
2018-02-19T11:37:08.900Z,85.20
2018-02-19T11:39:44.588Z,85.20
2018-02-19T11:42:18.053Z,84.20
2018-02-19T11:44:59.032Z,83.10
2018-02-19T11:47:38.134Z,82.30
2018-02-19T11:50:19.918Z,81.50
2018-02-19T11:53:00.104Z,81.30
2018-02-19T11:55:34.332Z,81.30
2018-02-19T11:58:13.487Z,81.30
2018-02-19T12:00:48.418Z,81.70
2018-02-19T12:03:22.495Z,82.60
2018-02-19T12:06:02.014Z,80.60
2018-02-19T12:08:42.391Z,79.40
2018-02-19T12:11:18.250Z,79.00
2018-02-19T12:13:55.824Z,78.90
2018-02-19T12:16:38.279Z,74.20
2018-02-19T12:19:18.852Z,74.20
2018-02-19T12:21:52.805Z,75.20
2018-02-19T12:24:34.462Z,73.40
2018-02-19T12:27:14.703Z,73.40
2018-02-19T12:29:52.501Z,73.20
2018-02-19T12:32:34.104Z,74.50
2018-02-19T12:35:16.257Z,75.50
2018-02-19T12:37:55.210Z,75.00
2018-02-19T12:40:37.539Z,73.00
2018-02-19T12:43:11.475Z,73.10
2018-02-19T12:45:48.566Z,73.30
2018-02-19T12:48:28.546Z,73.00
2018-02-19T12:51:07.211Z,73.00
2018-02-19T12:53:46.544Z,72.70
2018-02-19T12:56:27.782Z,71.80
2018-02-19T12:59:06.273Z,73.80
2018-02-19T13:01:46.554Z,74.60
2018-02-19T13:04:26.192Z,76.30
2018-02-19T13:07:06.932Z,76.50
2018-02-19T13:09:42.406Z,75.10
2018-02-19T13:12:21.790Z,75.00
2018-02-19T13:15:04.446Z,73.30
2018-02-19T13:17:45.065Z,76.10
2018-02-19T13:20:18.886Z,76.10
2018-02-19T13:23:01.381Z,78.20
2018-02-19T13:25:43.886Z,78.10
2018-02-19T13:28:20.315Z,77.00
2018-02-19T13:30:54.324Z,76.10
2018-02-19T13:33:28.302Z,76.50
2018-02-19T13:36:09.042Z,74.30
2018-02-19T13:38:49.610Z,74.30
2018-02-19T13:41:26.085Z,74.70
2018-02-19T13:44:07.003Z,75.60
2018-02-19T13:46:41.427Z,74.30
2018-02-19T13:49:15.351Z,72.00
2018-02-19T13:51:51.466Z,73.10
2018-02-19T13:54:25.996Z,72.40
2018-02-19T13:57:05.704Z,71.70
2018-02-19T13:59:43.744Z,71.70
2018-02-19T14:02:24.294Z,69.60
2018-02-19T14:05:06.529Z,70.30
2018-02-19T14:07:40.750Z,70.30
2018-02-19T14:10:18.446Z,69.80
2018-02-19T14:12:52.487Z,69.10
2018-02-19T14:15:26.213Z,67.60
2018-02-19T14:18:01.399Z,65.40
2018-02-19T14:20:41.566Z,65.40
2018-02-19T14:23:23.285Z,64.10
2018-02-19T14:26:03.618Z,67.30
2018-02-19T14:28:46.914Z,66.80
2018-02-19T14:31:29.787Z,67.60
2018-02-19T14:34:04.462Z,67.60
2018-02-19T14:36:44.181Z,69.10
2018-02-19T14:39:26.140Z,68.20
2018-02-19T14:42:01.133Z,68.20
2018-02-19T14:44:37.875Z,68.80
2018-02-19T14:47:22.265Z,69.70
2018-02-19T14:49:56.217Z,71.50
2018-02-19T14:52:36.746Z,72.30
2018-02-19T14:55:17.502Z,71.20
2018-02-19T14:57:56.536Z,71.50
2018-02-19T15:00:35.752Z,70.40
2018-02-19T15:03:16.997Z,68.10
2018-02-19T15:06:00.184Z,68.10
2018-02-19T15:08:40.897Z,66.80
2018-02-19T15:11:20.443Z,67.00
2018-02-19T15:13:58.291Z,66.90
2018-02-19T15:16:37.276Z,68.40
2018-02-19T15:19:17.600Z,68.30
2018-02-19T15:21:58.294Z,68.20
2018-02-19T15:24:38.542Z,70.50
2018-02-19T15:27:19.237Z,70.50
2018-02-19T15:29:53.124Z,70.20
2018-02-19T15:32:35.085Z,69.80
2018-02-19T15:35:14.570Z,69.80
2018-02-19T15:37:47.770Z,70.20
2018-02-19T15:40:22.490Z,71.70
2018-02-19T15:42:55.345Z,70.90
2018-02-19T15:45:34.091Z,71.20
2018-02-19T15:48:13.333Z,71.20
2018-02-19T15:50:47.549Z,72.90
2018-02-19T15:53:26.418Z,72.90
2018-02-19T15:56:00.863Z,72.80
2018-02-19T15:58:39.504Z,72.00
2018-02-19T16:01:18.016Z,72.40
2018-02-19T16:03:56.380Z,72.60
2018-02-19T16:06:32.519Z,72.60
2018-02-19T16:09:10.953Z,72.70
2018-02-19T16:11:44.370Z,72.90
2018-02-19T16:14:24.191Z,73.20
2018-02-19T16:17:00.654Z,72.90
2018-02-19T16:19:45.533Z,72.70
2018-02-19T16:22:24.411Z,72.40
2018-02-19T16:25:05.056Z,71.50
2018-02-19T16:27:43.239Z,71.40
2018-02-19T16:30:21.222Z,71.30
2018-02-19T16:33:05.795Z,71.20
2018-02-19T16:35:48.474Z,71.40
2018-02-19T16:38:31.337Z,71.30
2018-02-19T16:41:09.401Z,71.30
2018-02-19T16:43:48.089Z,71.50
2018-02-19T16:46:27.255Z,72.20
2018-02-19T16:49:06.800Z,72.70
2018-02-19T16:51:46.512Z,73.20
2018-02-19T16:54:24.925Z,73.80
2018-02-19T16:57:06.472Z,74.00
2018-02-19T16:59:44.983Z,74.00
2018-02-19T17:02:24.338Z,74.30
2018-02-19T17:05:04.679Z,74.50
2018-02-19T17:07:43.493Z,75.00
2018-02-19T17:10:24.655Z,75.10
2018-02-19T17:13:03.077Z,75.50
2018-02-19T17:15:41.595Z,76.00
2018-02-19T17:18:21.585Z,75.70
2018-02-19T17:20:59.704Z,75.60
2018-02-19T17:23:33.344Z,75.90
2018-02-19T17:26:13.557Z,75.80
2018-02-19T17:28:55.035Z,76.10
2018-02-19T17:31:34.521Z,75.80
2018-02-19T17:34:15.289Z,76.20
2018-02-19T17:36:54.830Z,76.20
2018-02-19T17:39:37.105Z,75.70
2018-02-19T17:42:16.452Z,75.30
2018-02-19T17:44:57.086Z,75.00
2018-02-19T17:47:35.373Z,75.00
2018-02-19T17:50:16.329Z,74.40
2018-02-19T17:53:01.949Z,75.10
2018-02-19T17:55:47.849Z,75.30
2018-02-19T17:58:27.849Z,75.80
2018-02-19T18:01:06.676Z,76.00
2018-02-19T18:03:45.770Z,76.10
2018-02-19T18:06:23.814Z,76.20
2018-02-19T18:09:03.471Z,76.20
2018-02-19T18:11:43.100Z,76.60
2018-02-19T18:14:23.385Z,75.90
2018-02-19T18:17:02.436Z,75.60
2018-02-19T18:19:42.052Z,75.30
2018-02-19T18:22:21.540Z,75.30
2018-02-19T18:25:04.833Z,76.00
2018-02-19T18:27:43.286Z,76.00
2018-02-19T18:30:24.622Z,76.50
2018-02-19T18:33:04.055Z,75.80
2018-02-19T18:35:46.252Z,75.20
2018-02-19T18:38:27.769Z,75.20
2018-02-19T18:41:01.820Z,75.40
2018-02-19T18:43:39.976Z,75.40
2018-02-19T18:46:21.264Z,75.50
2018-02-19T18:49:00.503Z,75.50
2018-02-19T18:51:35.790Z,75.80
2018-02-19T18:54:18.053Z,75.80
2018-02-19T18:56:58.903Z,75.50
2018-02-19T18:59:37.370Z,75.40
2018-02-19T19:02:17.914Z,75.30
2018-02-19T19:05:00.336Z,75.10
2018-02-19T19:07:47.822Z,75.10
2018-02-19T19:10:30.104Z,74.80
2018-02-19T19:13:09.308Z,74.90
2018-02-19T19:15:46.983Z,74.10
2018-02-19T19:18:22.507Z,73.40
2018-02-19T19:20:56.442Z,73.40
2018-02-19T19:23:38.471Z,73.60
2018-02-19T19:26:17.104Z,73.60
2018-02-19T19:28:55.968Z,73.30
2018-02-19T19:31:34.651Z,72.60
2018-02-19T19:34:16.158Z,72.60
2018-02-19T19:36:56.948Z,72.70
2018-02-19T19:39:35.760Z,73.20
2018-02-19T19:42:14.160Z,73.10
2018-02-19T19:44:48.333Z,73.30
2018-02-19T19:47:22.353Z,73.60
2018-02-19T19:50:02.087Z,73.10
2018-02-19T19:52:40.362Z,73.30
2018-02-19T19:55:20.020Z,73.30
2018-02-19T19:58:02.465Z,73.20
2018-02-19T20:00:41.748Z,73.20
2018-02-19T20:03:22.055Z,73.70
2018-02-19T20:06:00.864Z,73.70
2018-02-19T20:08:35.265Z,74.30
2018-02-19T20:11:11.966Z,74.40
2018-02-19T20:13:46.768Z,74.70
2018-02-19T20:16:20.471Z,74.80
2018-02-19T20:18:53.178Z,75.30
2018-02-19T20:21:26.851Z,75.40
2018-02-19T20:24:05.548Z,75.20
2018-02-19T20:26:46.032Z,74.30
2018-02-19T20:29:25.219Z,74.30
2018-02-19T20:32:06.588Z,74.40
2018-02-19T20:34:46.234Z,74.80
2018-02-19T20:37:22.862Z,74.60
2018-02-19T20:40:03.240Z,74.00
2018-02-19T20:42:43.820Z,74.10
2018-02-19T20:45:23.076Z,74.00
2018-02-19T20:48:06.612Z,74.60
2018-02-19T20:50:45.426Z,74.80
2018-02-19T20:53:25.153Z,75.00
2018-02-19T20:56:05.291Z,75.50
2018-02-19T20:58:44.233Z,76.00
2018-02-19T21:01:25.032Z,76.20
2018-02-19T21:03:59.197Z,77.10
2018-02-19T21:06:40.508Z,77.10
2018-02-19T21:09:19.477Z,77.50
2018-02-19T21:11:54.507Z,77.80
2018-02-19T21:14:35.511Z,78.10
2018-02-19T21:17:14.709Z,78.00
2018-02-19T21:19:55.367Z,77.80
2018-02-19T21:22:36.259Z,77.80
2018-02-19T21:25:17.442Z,77.90
2018-02-19T21:27:55.553Z,77.90
2018-02-19T21:30:30.922Z,78.10
2018-02-19T21:33:09.078Z,78.80
2018-02-19T21:35:48.503Z,77.60
2018-02-19T21:38:28.105Z,77.70
2018-02-19T21:41:02.093Z,78.70
2018-02-19T21:43:36.047Z,77.80
2018-02-19T21:46:17.098Z,77.80
2018-02-19T21:48:55.938Z,77.20
2018-02-19T21:51:36.415Z,77.10
2018-02-19T21:54:15.435Z,76.90
2018-02-19T21:56:53.554Z,76.80
2018-02-19T21:59:27.876Z,77.30
2018-02-19T22:02:08.729Z,77.50
2018-02-19T22:04:47.070Z,77.90
2018-02-19T22:07:26.552Z,78.00
2018-02-19T22:10:04.744Z,78.00
2018-02-19T22:12:45.203Z,77.80
2018-02-19T22:15:24.709Z,77.80
2018-02-19T22:17:58.101Z,77.50
2018-02-19T22:20:31.736Z,77.40
2018-02-19T22:23:12.906Z,78.10
2018-02-19T22:25:54.051Z,77.90
2018-02-19T22:28:29.010Z,77.90
2018-02-19T22:31:03.537Z,78.80
2018-02-19T22:33:39.003Z,79.60
2018-02-19T22:36:12.343Z,79.50
2018-02-19T22:38:52.126Z,79.50
2018-02-19T22:41:26.818Z,79.50
2018-02-19T22:44:05.091Z,79.40
2018-02-19T22:46:39.254Z,79.50
2018-02-19T22:49:21.284Z,79.40
2018-02-19T22:52:01.531Z,79.60
2018-02-19T22:54:41.849Z,79.80
2018-02-19T22:57:21.290Z,79.70
2018-02-19T23:00:01.484Z,80.70
2018-02-19T23:02:36.699Z,79.40
2018-02-19T23:05:10.774Z,79.40
2018-02-19T23:07:44.247Z,80.40
2018-02-19T23:10:18.628Z,80.00
2018-02-19T23:12:52.341Z,80.20
2018-02-19T23:15:31.331Z,80.40
2018-02-19T23:18:11.821Z,80.40
2018-02-19T23:20:50.522Z,80.90
2018-02-19T23:23:32.121Z,80.60
2018-02-19T23:26:12.550Z,80.50
2018-02-19T23:28:54.950Z,80.50
2018-02-19T23:31:34.286Z,80.70
2018-02-19T23:34:12.595Z,80.70
2018-02-19T23:36:53.438Z,80.70
2018-02-19T23:39:27.640Z,80.40
2018-02-19T23:42:06.878Z,80.40
2018-02-19T23:44:47.929Z,80.60
2018-02-19T23:47:22.417Z,80.80
2018-02-19T23:50:02.505Z,81.20
2018-02-19T23:52:42.852Z,81.40
2018-02-19T23:55:22.767Z,81.70
2018-02-19T23:58:02.626Z,81.40
